Météo Nord-Pas-de-Calais   La météo au plus près de chez vous

Station météorologique

Observations météo à Leran (09161)

09161003 391 m Dernier relevé à 07:00
15.4°C
Humidité 87 % Vent 0 km/h

Journée consultée

Samedi 5 Septembre 2026

Synthèse de la journée

Périodes de référence en UTC

Température maximale

36.8°C

à 16:00

06h 06h

Température minimale

15.2°C

à 06:48

18h 18h

Rafale maximale

10 km/h

à 03:18

00h 00h

Précipitations

0 mm

Cumul quotidien

06h 06h

Graphiques de la journée

Heure locale Réduire

Données détaillées

Relevés météo

Pas de 6 minutes Afficher les relevés infra-horaires
Relevés météo détaillés à Leran pour le Samedi 5 Septembre 2026
Heure Température °C Point de rosée °C Humidité % Vent moyen (raf.), km/h Précipitations mm
07:00 15.4 °C 13.6 °C 89 % 0 km/h (3 km/h) 0 mm0 mm
06:54 15.3 °C 13.1 °C 87 % 0 km/h (2 km/h) 0 mm0 mm
06:48 15.2 °C 12.9 °C 86 % 0 km/h (0 km/h) 0 mm0 mm
06:42 15.4 °C 13.2 °C 87 % 0 km/h (3 km/h) 0 mm0 mm
06:36 15.3 °C 13.1 °C 87 % 0 km/h (3 km/h) 0 mm0 mm
06:30 15.5 °C 13.5 °C 88 % 0 km/h (3 km/h) 0 mm0 mm
06:24 15.5 °C 13.5 °C 88 % 0 km/h (3 km/h) 0 mm0 mm
06:18 15.6 °C 13.3 °C 86 % 0 km/h (2 km/h) 0 mm0 mm
06:12 15.7 °C 13.4 °C 86 % 0 km/h (2 km/h) 0 mm0 mm
06:06 15.7 °C 13.2 °C 85 % 0 km/h (3 km/h) 0 mm0 mm
06:00 16.2 °C 14 °C 87 % 0 km/h (3 km/h) 0 mm0 mm
05:54 16.3 °C 13.8 °C 85 % 0 km/h (3 km/h) 0 mm0 mm
05:48 16.3 °C 13.2 °C 82 % 0 km/h (3 km/h) 0 mm0 mm
05:42 16.3 °C 12.8 °C 80 % 2 km/h (3 km/h) 0 mm0 mm
05:36 16.4 °C 13.1 °C 81 % 2 km/h (4 km/h) 0 mm0 mm
05:30 16.6 °C 13.3 °C 81 % 3 km/h (4 km/h) 0 mm0 mm
05:24 16.5 °C 13.4 °C 82 % 3 km/h (4 km/h) 0 mm0 mm
05:18 16.4 °C 13.1 °C 81 % 0 km/h (4 km/h) 0 mm0 mm
05:12 16.3 °C 12.8 °C 80 % 0 km/h (2 km/h) 0 mm0 mm
05:06 16.2 °C 12.9 °C 81 % 0 km/h (3 km/h) 0 mm0 mm
05:00 16.2 °C 12.9 °C 81 % 2 km/h (4 km/h) 0 mm0 mm
04:54 16.3 °C 12.8 °C 80 % 3 km/h (5 km/h) 0 mm0 mm
04:48 16.5 °C 13.2 °C 81 % 3 km/h (6 km/h) 0 mm0 mm
04:42 16.9 °C 13.8 °C 82 % 2 km/h (4 km/h) 0 mm0 mm
04:36 16.8 °C 13.3 °C 80 % 3 km/h (6 km/h) 0 mm0 mm
04:30 16.9 °C 13.6 °C 81 % 4 km/h (7 km/h) 0 mm0 mm
04:24 16.9 °C 13.4 °C 80 % 4 km/h (7 km/h) 0 mm0 mm
04:18 17 °C 13.3 °C 79 % 3 km/h (6 km/h) 0 mm0 mm
04:12 17.4 °C 13.7 °C 79 % 3 km/h (5 km/h) 0 mm0 mm
04:06 17.7 °C 14 °C 79 % 3 km/h (5 km/h) 0 mm0 mm
04:00 17.7 °C 13.4 °C 76 % 3 km/h (6 km/h) 0 mm0 mm
03:54 17.8 °C 14.1 °C 79 % 3 km/h (6 km/h) 0 mm0 mm
03:48 17.9 °C 13.8 °C 77 % 3 km/h (10 km/h) 0 mm0 mm
03:42 17.4 °C 13.5 °C 78 % 2 km/h (5 km/h) 0 mm0 mm
03:36 17.6 °C 13.9 °C 79 % 3 km/h (8 km/h) 0 mm0 mm
03:30 17.9 °C 14.2 °C 79 % 4 km/h (8 km/h) 0 mm0 mm
03:24 17.7 °C 14 °C 79 % 4 km/h (10 km/h) 0 mm0 mm
03:18 17.2 °C 12.7 °C 75 % 4 km/h (10 km/h) 0 mm0 mm
03:12 17.2 °C 13.3 °C 78 % 4 km/h (6 km/h) 0 mm0 mm
03:06 17.1 °C 13.2 °C 78 % 4 km/h (6 km/h) 0 mm0 mm
03:00 16.9 °C 12.8 °C 77 % 5 km/h (6 km/h) 0 mm0 mm
02:54 16.9 °C 12.4 °C 75 % 4 km/h (6 km/h) 0 mm0 mm
02:48 16.9 °C 12.6 °C 76 % 3 km/h (6 km/h) 0 mm0 mm
02:42 16.8 °C 12.7 °C 77 % 3 km/h (6 km/h) 0 mm0 mm
02:36 16.9 °C 13 °C 78 % 2 km/h (5 km/h) 0 mm0 mm
02:30 16.7 °C 12.4 °C 76 % 0 km/h (4 km/h) 0 mm0 mm
02:24 16.8 °C 12.5 °C 76 % 2 km/h (5 km/h) 0 mm0 mm
02:18 16.9 °C 13 °C 78 % 4 km/h (7 km/h) 0 mm0 mm
02:12 16.9 °C 12.2 °C 74 % 3 km/h (7 km/h) 0 mm0 mm
02:06 16.9 °C 12.6 °C 76 % 3 km/h (7 km/h) 0 mm0 mm
02:00 17 °C 12.9 °C 77 % 2 km/h (4 km/h) 0 mm0 mm
01:54 16.9 °C 12.6 °C 76 % 0 km/h (3 km/h) 0 mm0 mm
01:48 17 °C 12.7 °C 76 % 0 km/h (3 km/h) 0 mm0 mm
01:42 17.2 °C 13.3 °C 78 % 0 km/h (3 km/h) 0 mm0 mm
01:36 17 °C 11.9 °C 72 % 0 km/h (3 km/h) 0 mm0 mm
01:30 17.1 °C 11.6 °C 70 % 0 km/h (2 km/h) 0 mm0 mm
01:24 17.3 °C 12.2 °C 72 % 0 km/h (2 km/h) 0 mm0 mm
01:18 17.6 °C 12.7 °C 73 % 0 km/h (0 km/h) 0 mm0 mm
01:12 17.6 °C 11.4 °C 67 % 0 km/h (2 km/h) 0 mm0 mm
01:06 17.8 °C 11.6 °C 67 % 3 km/h (5 km/h) 0 mm0 mm
01:00 17.9 °C 11.5 °C 66 % 4 km/h (5 km/h) 0 mm0 mm
00:54 17.9 °C 11.7 °C 67 % 3 km/h (5 km/h) 0 mm0 mm
00:48 17.8 °C 11.8 °C 68 % 2 km/h (4 km/h) 0 mm0 mm
00:42 17.9 °C 12.8 °C 72 % 0 km/h (3 km/h) 0 mm0 mm
00:36 18 °C 12.9 °C 72 % 0 km/h (2 km/h) 0 mm0 mm
00:30 18.2 °C 13.1 °C 72 % 0 km/h (2 km/h) 0 mm0 mm
00:24 18.3 °C 12.3 °C 68 % 2 km/h (3 km/h) 0 mm0 mm
00:18 18.4 °C 12.4 °C 68 % 0 km/h (3 km/h) 0 mm0 mm
00:12 18.7 °C 13.8 °C 73 % 0 km/h (0 km/h) 0 mm0 mm
00:06 18.7 °C 13.1 °C 70 % 0 km/h (0 km/h) 0 mm0 mm
00:00 18.7 °C 12.2 °C 66 % 0 km/h (0 km/h) 0 mm0 mm

Données via Météo-France

Relevés météo à Leran

Cette page rassemble les observations de la station de Leran : température, humidité, vent, précipitations et pression atmosphérique. Les graphiques facilitent le suivi de la journée, tandis que le tableau donne accès aux mesures horaires et infra-horaires disponibles.

Pour replacer ces mesures dans leur contexte, consultez la climatologie de Leran ainsi que ses normales et records. Retrouvez aussi la carte des observations météo en temps réel.